createdAt,value
2018-02-01T00:00:40.582Z,4.99
2018-02-01T00:01:40.365Z,4.91
2018-02-01T00:02:40.366Z,4.99
2018-02-01T00:03:40.208Z,4.97
2018-02-01T00:04:40.206Z,4.93
2018-02-01T00:05:40.059Z,4.88
2018-02-01T00:06:40.097Z,4.84
2018-02-01T00:07:39.877Z,4.84
2018-02-01T00:08:39.897Z,4.83
2018-02-01T00:09:39.719Z,4.74
2018-02-01T00:10:39.726Z,4.88
2018-02-01T00:11:39.652Z,4.83
2018-02-01T00:12:39.517Z,4.84
2018-02-01T00:13:39.402Z,4.97
2018-02-01T00:14:39.423Z,4.97
2018-02-01T00:15:39.247Z,5.01
2018-02-01T00:16:39.222Z,5.01
2018-02-01T00:17:39.160Z,4.79
2018-02-01T00:18:39.030Z,4.90
2018-02-01T00:19:38.899Z,4.84
2018-02-01T00:20:38.889Z,4.86
2018-02-01T00:21:38.734Z,4.80
2018-02-01T00:22:38.756Z,4.83
2018-02-01T00:23:38.571Z,4.91
2018-02-01T00:24:38.562Z,4.91
2018-02-01T00:25:38.407Z,4.83
2018-02-01T00:26:38.393Z,4.97
2018-02-01T00:27:38.261Z,4.88
2018-02-01T00:28:38.291Z,4.83
2018-02-01T00:29:38.147Z,4.88
2018-02-01T00:30:38.088Z,4.83
2018-02-01T00:31:37.964Z,4.80
2018-02-01T00:32:37.909Z,4.83
2018-02-01T00:33:37.764Z,4.80
2018-02-01T00:34:37.714Z,4.80
2018-02-01T00:35:37.627Z,4.84
2018-02-01T00:36:37.649Z,4.80
2018-02-01T00:37:37.468Z,4.80
2018-02-01T00:38:37.432Z,4.80
2018-02-01T00:39:37.262Z,4.84
2018-02-01T00:40:37.235Z,4.87
2018-02-01T00:41:37.110Z,4.74
2018-02-01T00:42:37.089Z,4.71
2018-02-01T00:43:36.951Z,4.75
2018-02-01T00:44:36.964Z,4.68
2018-02-01T00:45:36.782Z,4.68
2018-02-01T00:46:36.766Z,4.75
2018-02-01T00:47:36.653Z,4.69
2018-02-01T00:48:36.586Z,4.68
2018-02-01T00:49:36.448Z,4.68
2018-02-01T00:50:36.490Z,4.65
2018-02-01T00:51:36.289Z,4.71
2018-02-01T00:52:36.294Z,4.64
2018-02-01T00:53:36.140Z,4.68
2018-02-01T00:54:36.108Z,4.68
2018-02-01T00:55:35.957Z,4.71
2018-02-01T00:56:36.020Z,4.64
2018-02-01T00:57:35.802Z,4.69
2018-02-01T00:58:35.857Z,4.65
2018-02-01T00:59:35.630Z,4.71
2018-02-01T01:00:35.628Z,4.72
2018-02-01T01:01:35.467Z,4.79
2018-02-01T01:02:35.438Z,4.77
2018-02-01T01:03:35.300Z,4.72
2018-02-01T01:04:35.273Z,4.68
2018-02-01T01:05:35.146Z,4.72
2018-02-01T01:06:35.151Z,4.64
2018-02-01T01:07:34.975Z,4.65
2018-02-01T01:08:35.006Z,4.71
2018-02-01T01:09:34.829Z,4.72
2018-02-01T01:10:34.769Z,4.71
2018-02-01T01:11:34.651Z,4.71
2018-02-01T01:12:34.679Z,4.68
2018-02-01T01:13:34.526Z,4.69
2018-02-01T01:14:34.491Z,4.68
2018-02-01T01:15:34.339Z,4.65
2018-02-01T01:16:34.308Z,4.65
2018-02-01T01:17:34.155Z,4.59
2018-02-01T01:18:34.219Z,4.67
2018-02-01T01:19:34.024Z,4.71
2018-02-01T01:20:34.054Z,4.67
2018-02-01T01:21:33.830Z,4.68
2018-02-01T01:22:33.825Z,4.64
2018-02-01T01:23:33.668Z,4.74
2018-02-01T01:24:33.639Z,4.69
2018-02-01T01:25:33.522Z,4.72
2018-02-01T01:26:33.548Z,4.68
2018-02-01T01:27:33.338Z,4.68
2018-02-01T01:28:33.357Z,4.72
2018-02-01T01:29:33.268Z,4.72
2018-02-01T01:30:33.164Z,4.74
2018-02-01T01:31:33.011Z,4.75
2018-02-01T01:32:33.004Z,4.84
2018-02-01T01:33:32.849Z,4.86
2018-02-01T01:34:32.916Z,4.86
2018-02-01T01:35:32.747Z,4.87
2018-02-01T01:36:32.725Z,4.83
2018-02-01T01:37:32.526Z,4.97
2018-02-01T01:38:32.596Z,4.97
2018-02-01T01:39:32.354Z,4.99
2018-02-01T01:40:32.342Z,4.79
2018-02-01T01:41:32.203Z,4.83
2018-02-01T01:42:32.248Z,4.83
2018-02-01T01:43:32.060Z,4.84
2018-02-01T01:44:32.034Z,4.77
2018-02-01T01:45:31.866Z,4.68
2018-02-01T01:46:31.843Z,4.67
2018-02-01T01:47:31.742Z,4.64
2018-02-01T01:48:31.743Z,4.53
2018-02-01T01:49:31.541Z,4.54
2018-02-01T01:50:31.553Z,4.57
2018-02-01T01:51:31.394Z,4.47
2018-02-01T01:52:31.363Z,4.51
2018-02-01T01:53:31.234Z,4.53
2018-02-01T01:54:31.169Z,4.50
2018-02-01T01:55:31.051Z,4.46
2018-02-01T01:56:31.115Z,4.61
2018-02-01T01:57:30.887Z,4.44
2018-02-01T01:58:30.895Z,4.42
2018-02-01T01:59:30.728Z,4.51
2018-02-01T02:00:30.735Z,4.53
2018-02-01T02:01:30.563Z,4.38
2018-02-01T02:02:30.602Z,4.43
2018-02-01T02:03:30.399Z,4.38
2018-02-01T02:04:30.442Z,4.42
2018-02-01T02:05:30.231Z,4.44
2018-02-01T02:06:30.234Z,4.35
2018-02-01T02:07:30.067Z,4.38
2018-02-01T02:08:30.033Z,4.39
2018-02-01T02:09:29.917Z,4.36
2018-02-01T02:10:30.045Z,4.38
2018-02-01T02:11:29.742Z,4.29
2018-02-01T02:12:29.746Z,4.28
2018-02-01T02:13:29.583Z,4.26
2018-02-01T02:14:29.593Z,4.24
2018-02-01T02:15:29.456Z,4.28
2018-02-01T02:16:29.369Z,4.25
2018-02-01T02:17:29.261Z,4.32
2018-02-01T02:18:29.280Z,4.26
2018-02-01T02:19:29.081Z,4.34
2018-02-01T02:20:29.130Z,4.26
2018-02-01T02:21:28.925Z,4.31
2018-02-01T02:22:28.887Z,4.32
2018-02-01T02:23:28.778Z,4.24
2018-02-01T02:24:28.821Z,4.26
2018-02-01T02:25:28.622Z,4.21
2018-02-01T02:26:28.614Z,4.32
2018-02-01T02:27:28.437Z,4.20
2018-02-01T02:28:28.427Z,4.11
2018-02-01T02:29:28.264Z,4.16
2018-02-01T02:30:28.266Z,4.16
2018-02-01T02:31:28.128Z,4.14
2018-02-01T02:32:28.148Z,3.99
2018-02-01T02:33:27.946Z,4.04
2018-02-01T02:34:28.052Z,3.96
2018-02-01T02:35:27.805Z,3.98
2018-02-01T02:36:28.313Z,4.00
2018-02-01T02:37:27.612Z,4.02
2018-02-01T02:38:27.569Z,4.00
2018-02-01T02:39:27.452Z,3.88
2018-02-01T02:40:27.521Z,3.84
2018-02-01T02:41:27.280Z,3.93
2018-02-01T02:42:27.289Z,3.82
2018-02-01T02:43:27.121Z,3.95
2018-02-01T02:44:27.093Z,3.99
2018-02-01T02:45:26.987Z,3.93
2018-02-01T02:46:26.939Z,3.82
2018-02-01T02:47:26.785Z,3.90
2018-02-01T02:48:26.818Z,3.92
2018-02-01T02:49:26.617Z,3.82
2018-02-01T02:50:26.622Z,3.86
2018-02-01T02:51:26.480Z,3.86
2018-02-01T02:52:26.428Z,3.81
2018-02-01T02:53:26.306Z,3.81
2018-02-01T02:54:26.339Z,3.81
2018-02-01T02:55:26.139Z,3.89
2018-02-01T02:56:26.191Z,3.82
2018-02-01T02:57:25.993Z,3.86
2018-02-01T02:58:25.959Z,3.89
2018-02-01T02:59:25.798Z,3.80
2018-02-01T03:00:25.773Z,3.80
2018-02-01T03:01:25.638Z,3.77
2018-02-01T03:02:25.617Z,3.84
2018-02-01T03:03:25.476Z,3.78
2018-02-01T03:04:25.482Z,3.82
2018-02-01T03:05:25.306Z,3.75
2018-02-01T03:06:25.292Z,3.78
2018-02-01T03:07:25.172Z,3.75
2018-02-01T03:08:25.096Z,3.82
2018-02-01T03:09:24.980Z,3.74
2018-02-01T03:10:25.018Z,3.80
2018-02-01T03:11:24.825Z,3.72
2018-02-01T03:12:24.861Z,3.74
2018-02-01T03:13:24.651Z,3.72
2018-02-01T03:14:24.628Z,3.72
2018-02-01T03:15:24.491Z,3.63
2018-02-01T03:16:24.536Z,3.71
2018-02-01T03:17:24.323Z,3.77
2018-02-01T03:18:24.372Z,3.72
2018-02-01T03:19:24.167Z,3.71
2018-02-01T03:20:24.157Z,3.74
2018-02-01T03:21:23.992Z,3.74
2018-02-01T03:22:23.963Z,3.77
2018-02-01T03:23:23.850Z,3.68
2018-02-01T03:24:23.872Z,3.72
2018-02-01T03:25:23.665Z,3.72
2018-02-01T03:26:23.685Z,3.70
2018-02-01T03:27:23.532Z,3.67
2018-02-01T03:28:23.523Z,3.67
2018-02-01T03:29:23.334Z,3.68
2018-02-01T03:30:23.305Z,3.72
2018-02-01T03:31:23.169Z,3.70
2018-02-01T03:32:23.218Z,3.72
2018-02-01T03:33:23.143Z,3.62
2018-02-01T03:36:05.142Z,3.70
2018-02-01T03:37:05.117Z,3.68
2018-02-01T03:38:04.957Z,3.67
2018-02-01T03:39:04.935Z,3.63
2018-02-01T03:40:04.820Z,3.62
2018-02-01T03:41:04.845Z,3.68
2018-02-01T03:42:04.650Z,3.70
2018-02-01T03:43:04.650Z,3.68
2018-02-01T03:44:04.482Z,3.59
2018-02-01T03:45:04.457Z,3.63
2018-02-01T03:46:04.300Z,3.60
2018-02-01T03:47:04.265Z,3.64
2018-02-01T03:48:04.153Z,3.56
2018-02-01T03:49:04.199Z,3.57
2018-02-01T03:50:03.990Z,3.53
2018-02-01T03:51:03.990Z,3.70
2018-02-01T03:52:03.800Z,3.60
2018-02-01T03:53:03.834Z,3.56
2018-02-01T03:54:03.711Z,3.57
2018-02-01T03:55:03.685Z,3.52
2018-02-01T03:56:03.505Z,3.54
2018-02-01T03:57:03.517Z,3.53
2018-02-01T03:58:03.320Z,3.60
2018-02-01T03:59:03.363Z,3.57
2018-02-01T04:00:03.198Z,3.59
2018-02-01T04:01:03.127Z,3.57
2018-02-01T04:02:02.975Z,3.54
2018-02-01T04:03:03.039Z,3.67
2018-02-01T04:04:02.815Z,3.68
2018-02-01T04:05:02.842Z,3.59
2018-02-01T04:06:02.670Z,3.59
2018-02-01T04:07:02.672Z,3.59
2018-02-01T04:08:02.488Z,3.56
2018-02-01T04:09:02.459Z,3.59
2018-02-01T04:10:02.350Z,3.63
2018-02-01T04:11:02.315Z,3.56
2018-02-01T04:12:02.149Z,3.59
2018-02-01T04:13:02.190Z,3.59
2018-02-01T04:14:01.994Z,3.56
2018-02-01T04:15:01.998Z,3.52
2018-02-01T04:16:01.840Z,3.49
2018-02-01T04:17:01.798Z,3.54
2018-02-01T04:18:01.670Z,3.53
2018-02-01T04:19:01.603Z,3.49
2018-02-01T04:20:01.501Z,3.57
2018-02-01T04:21:01.557Z,3.54
2018-02-01T04:22:01.356Z,3.46
2018-02-01T04:23:01.325Z,3.34
2018-02-01T04:24:01.187Z,3.42
2018-02-01T04:25:01.132Z,3.49
2018-02-01T04:26:00.991Z,3.39
2018-02-01T04:27:01.003Z,3.44
2018-02-01T04:28:00.870Z,3.42
2018-02-01T04:29:00.860Z,3.49
2018-02-01T04:30:00.674Z,3.52
2018-02-01T04:31:00.658Z,3.54
2018-02-01T04:32:00.526Z,3.45
2018-02-01T04:33:00.549Z,3.34
2018-02-01T04:34:00.336Z,3.42
2018-02-01T04:35:00.376Z,3.37
2018-02-01T04:36:00.175Z,3.49
2018-02-01T04:37:00.215Z,3.44
2018-02-01T04:38:00.008Z,3.44
2018-02-01T04:39:00.025Z,3.46
2018-02-01T04:39:59.848Z,3.39
2018-02-01T04:40:59.802Z,3.39
2018-02-01T04:41:59.671Z,3.49
2018-02-01T04:42:59.710Z,3.42
2018-02-01T04:43:59.527Z,3.44
2018-02-01T04:44:59.519Z,3.44
2018-02-01T04:45:59.359Z,3.42
2018-02-01T04:46:59.333Z,3.33
2018-02-01T04:47:59.202Z,3.35
2018-02-01T04:48:59.142Z,3.46
2018-02-01T04:49:59.026Z,3.41
2018-02-01T04:50:59.051Z,3.42
2018-02-01T04:51:58.854Z,3.41
2018-02-01T04:52:58.897Z,3.56
2018-02-01T04:53:58.699Z,3.39
2018-02-01T04:54:58.672Z,3.45
2018-02-01T04:55:58.576Z,3.50
2018-02-01T04:56:58.486Z,3.44
2018-02-01T04:57:58.656Z,3.53
2018-02-01T04:58:58.396Z,3.56
2018-02-01T04:59:58.197Z,3.49
2018-02-01T05:00:58.209Z,3.56
2018-02-01T05:01:58.047Z,3.41
2018-02-01T05:02:58.002Z,3.42
2018-02-01T05:03:57.879Z,3.54
2018-02-01T05:04:57.812Z,3.56
2018-02-01T05:05:57.701Z,3.50
2018-02-01T05:06:57.726Z,3.45
2018-02-01T05:07:57.543Z,3.53
2018-02-01T05:08:57.574Z,3.60
2018-02-01T05:09:57.369Z,3.53
2018-02-01T05:10:57.342Z,3.57
2018-02-01T05:11:57.205Z,3.56
2018-02-01T05:12:57.253Z,3.59
2018-02-01T05:13:57.033Z,3.53
2018-02-01T05:14:56.999Z,3.53
2018-02-01T05:15:56.872Z,3.59
2018-02-01T05:16:56.867Z,3.62
2018-02-01T05:17:56.709Z,3.56
2018-02-01T05:18:56.714Z,3.59
2018-02-01T05:19:56.566Z,3.49
2018-02-01T05:20:56.597Z,3.54
2018-02-01T05:21:56.379Z,3.54
2018-02-01T05:22:56.397Z,3.45
2018-02-01T05:23:56.217Z,3.52
2018-02-01T05:24:56.241Z,3.46
2018-02-01T05:25:56.082Z,3.45
2018-02-01T05:26:56.010Z,3.41
2018-02-01T05:27:55.882Z,3.41
2018-02-01T05:28:55.924Z,3.33
2018-02-01T05:29:55.740Z,3.35
2018-02-01T05:30:55.770Z,3.39
2018-02-01T05:31:55.549Z,3.33
2018-02-01T05:32:55.479Z,3.35
2018-02-01T05:33:55.388Z,3.45
2018-02-01T05:34:56.214Z,3.37
2018-02-01T05:35:55.237Z,3.39
2018-02-01T05:36:55.262Z,3.33
2018-02-01T05:37:55.069Z,3.34
2018-02-01T05:38:55.071Z,3.22
2018-02-01T05:39:54.895Z,3.30
2018-02-01T05:40:54.908Z,3.34
2018-02-01T05:41:54.734Z,3.30
2018-02-01T05:42:54.684Z,3.31
2018-02-01T05:43:54.558Z,3.19
2018-02-01T05:44:54.598Z,3.34
2018-02-01T05:45:54.418Z,3.30
2018-02-01T05:46:54.405Z,3.22
2018-02-01T05:47:54.267Z,3.22
2018-02-01T05:48:54.176Z,3.31
2018-02-01T05:49:54.072Z,3.25
2018-02-01T05:50:54.012Z,3.19
2018-02-01T05:51:53.895Z,3.25
2018-02-01T05:52:53.832Z,3.19
2018-02-01T05:53:53.737Z,3.17
2018-02-01T05:54:53.659Z,3.15
2018-02-01T05:55:53.640Z,3.16
2018-02-01T05:56:53.499Z,3.15
2018-02-01T05:57:53.426Z,3.13
2018-02-01T05:58:53.335Z,3.19
2018-02-01T05:59:53.240Z,3.10
2018-02-01T06:00:53.164Z,3.25
2018-02-01T06:01:53.068Z,3.28
2018-02-01T06:02:54.031Z,3.28
2018-02-01T06:03:52.905Z,3.28
2018-02-01T06:04:52.855Z,3.20
2018-02-01T06:05:52.740Z,3.10
2018-02-01T06:06:52.697Z,3.10
2018-02-01T06:07:52.582Z,3.12
2018-02-01T06:08:52.505Z,3.15
2018-02-01T06:09:52.421Z,3.16
2018-02-01T06:10:52.345Z,3.15
2018-02-01T06:11:52.265Z,3.15
2018-02-01T06:12:52.193Z,3.16
2018-02-01T06:13:52.082Z,3.12
2018-02-01T06:14:52.036Z,3.17
2018-02-01T06:15:51.912Z,3.16
2018-02-01T06:16:51.830Z,3.10
2018-02-01T06:17:51.760Z,3.15
2018-02-01T06:18:51.801Z,3.13
2018-02-01T06:19:51.595Z,3.12
2018-02-01T06:20:51.516Z,3.12
2018-02-01T06:21:51.429Z,3.15
2018-02-01T06:22:51.376Z,3.15
2018-02-01T06:23:51.256Z,2.99
2018-02-01T06:24:51.183Z,3.08
2018-02-01T06:25:51.097Z,3.07
2018-02-01T06:26:51.065Z,3.04
2018-02-01T06:27:51.708Z,2.97
2018-02-01T06:28:50.851Z,3.02
2018-02-01T06:29:50.763Z,2.94
2018-02-01T06:30:50.681Z,2.92
2018-02-01T06:31:50.602Z,2.95
2018-02-01T06:32:50.517Z,2.87
2018-02-01T06:33:50.444Z,2.97
2018-02-01T06:34:50.368Z,2.94
2018-02-01T06:35:50.275Z,2.90
2018-02-01T06:36:50.187Z,2.94
2018-02-01T06:37:50.097Z,2.98
2018-02-01T06:38:50.048Z,2.90
2018-02-01T06:39:49.953Z,2.94
2018-02-01T06:40:49.854Z,2.97
2018-02-01T06:41:49.759Z,2.97
2018-02-01T06:42:49.693Z,2.90
2018-02-01T06:43:49.597Z,2.89
2018-02-01T06:44:49.570Z,2.90
2018-02-01T06:45:49.469Z,2.92
2018-02-01T06:46:49.364Z,2.90
2018-02-01T06:47:49.269Z,3.01
2018-02-01T06:48:49.221Z,2.90
2018-02-01T06:49:49.116Z,2.94
2018-02-01T06:50:49.091Z,2.90
2018-02-01T06:51:48.933Z,2.99
2018-02-01T06:54:31.181Z,2.98
2018-02-01T06:55:31.131Z,2.90
2018-02-01T06:56:31.003Z,2.98
2018-02-01T06:57:31.012Z,2.98
2018-02-01T06:58:30.807Z,2.97
2018-02-01T06:59:30.825Z,3.01
2018-02-01T07:00:30.659Z,2.98
2018-02-01T07:01:30.637Z,3.01
2018-02-01T07:02:30.495Z,2.97
2018-02-01T07:03:30.437Z,2.90
2018-02-01T07:04:30.377Z,2.92
2018-02-01T07:05:30.262Z,2.95
2018-02-01T07:06:30.219Z,2.90
2018-02-01T07:07:30.085Z,2.89
2018-02-01T07:08:29.996Z,2.98
2018-02-01T07:09:29.966Z,2.89
2018-02-01T07:10:29.813Z,3.01
2018-02-01T07:11:29.792Z,3.05
2018-02-01T07:12:29.667Z,3.02
2018-02-01T07:13:29.686Z,2.95
2018-02-01T07:14:29.481Z,2.89
2018-02-01T07:15:29.481Z,2.92
2018-02-01T07:16:29.335Z,2.94
2018-02-01T07:17:29.297Z,2.86
2018-02-01T07:18:29.176Z,2.81
2018-02-01T07:19:29.096Z,2.81
2018-02-01T07:20:28.983Z,2.81
2018-02-01T07:21:29.049Z,2.90
2018-02-01T07:22:28.822Z,2.95
2018-02-01T07:23:44.762Z,2.94
2018-02-01T07:24:28.660Z,2.89
2018-02-01T07:25:28.606Z,2.86
2018-02-01T07:26:28.517Z,2.89
2018-02-01T07:27:28.423Z,3.01
2018-02-01T07:28:28.333Z,3.02
2018-02-01T07:29:28.267Z,2.97
2018-02-01T07:30:28.165Z,2.99
2018-02-01T07:31:28.109Z,2.99
2018-02-01T07:32:27.995Z,3.15
2018-02-01T07:33:27.927Z,3.15
2018-02-01T07:34:27.831Z,3.16
2018-02-01T07:35:27.751Z,3.08
2018-02-01T07:36:27.840Z,3.16
2018-02-01T07:37:27.588Z,3.17
2018-02-01T07:38:27.504Z,3.17
2018-02-01T07:39:27.481Z,3.12
2018-02-01T07:40:27.335Z,3.17
2018-02-01T07:41:27.270Z,3.16
2018-02-01T07:42:27.223Z,3.16
2018-02-01T07:43:27.108Z,3.13
2018-02-01T07:44:27.013Z,3.19
2018-02-01T07:45:26.935Z,3.15
2018-02-01T07:46:26.863Z,3.25
2018-02-01T07:47:26.798Z,3.37
2018-02-01T07:48:26.671Z,3.34
2018-02-01T07:51:08.658Z,3.54
2018-02-01T07:52:08.630Z,3.64
2018-02-01T07:53:08.479Z,3.71
2018-02-01T07:54:08.410Z,3.68
2018-02-01T07:55:08.438Z,3.72
2018-02-01T07:56:08.238Z,3.77
2018-02-01T07:57:08.177Z,3.74
2018-02-01T07:58:08.093Z,3.74
2018-02-01T07:59:07.986Z,3.70
2018-02-01T08:00:07.917Z,3.72
2018-02-01T08:01:07.819Z,3.84
2018-02-01T08:02:07.759Z,3.78
2018-02-01T08:03:07.674Z,3.82
2018-02-01T08:04:07.596Z,3.81
2018-02-01T08:05:07.488Z,3.82
2018-02-01T08:06:07.410Z,3.78
2018-02-01T08:07:07.359Z,3.81
2018-02-01T08:08:07.299Z,3.75
2018-02-01T08:09:07.177Z,3.74
2018-02-01T08:11:49.198Z,3.71
2018-02-01T08:12:49.074Z,3.72
2018-02-01T08:13:49.001Z,3.75
2018-02-01T08:14:48.929Z,3.70
2018-02-01T08:15:48.828Z,3.74
2018-02-01T08:16:48.747Z,3.90
2018-02-01T08:17:48.648Z,3.92
2018-02-01T08:18:48.611Z,3.92
2018-02-01T08:19:48.497Z,4.02
2018-02-01T08:20:48.419Z,4.00
2018-02-01T08:21:48.326Z,3.96
2018-02-01T08:22:48.269Z,3.90
2018-02-01T08:23:48.177Z,3.86
2018-02-01T08:24:48.088Z,3.80
2018-02-01T08:25:47.995Z,3.84
2018-02-01T08:26:47.924Z,3.86
2018-02-01T08:27:47.854Z,3.86
2018-02-01T08:28:47.797Z,3.95
2018-02-01T08:29:47.695Z,3.95
2018-02-01T08:30:47.601Z,3.90
2018-02-01T08:31:47.500Z,3.95
2018-02-01T08:32:47.435Z,3.99
2018-02-01T08:33:47.351Z,4.04
2018-02-01T08:34:47.255Z,4.08
2018-02-01T08:35:47.170Z,4.16
2018-02-01T08:36:47.121Z,4.18
2018-02-01T08:37:47.008Z,4.29
2018-02-01T08:38:46.969Z,4.25
2018-02-01T08:39:46.849Z,4.24
2018-02-01T08:40:46.820Z,4.26
2018-02-01T08:41:46.682Z,4.35
2018-02-01T08:42:46.625Z,4.42
2018-02-01T08:43:46.515Z,4.36
2018-02-01T08:44:46.933Z,4.50
2018-02-01T08:45:46.937Z,4.51
2018-02-01T08:46:46.305Z,4.44
2018-02-01T08:47:46.195Z,4.44
2018-02-01T08:48:46.110Z,4.53
2018-02-01T08:49:46.030Z,4.50
2018-02-01T08:50:45.977Z,4.68
2018-02-01T08:51:45.862Z,4.67
2018-02-01T08:52:45.830Z,4.56
2018-02-01T08:53:45.689Z,4.49
2018-02-01T08:54:45.613Z,4.50
2018-02-01T08:55:45.550Z,4.43
2018-02-01T08:56:45.453Z,4.84
2018-02-01T08:57:45.376Z,5.44
2018-02-01T08:58:45.302Z,5.99
2018-02-01T08:59:45.246Z,6.53
2018-02-01T09:00:45.164Z,6.65
2018-02-01T09:01:45.032Z,6.83
2018-02-01T09:02:44.963Z,7.05
2018-02-01T09:03:44.886Z,7.58
2018-02-01T09:04:44.814Z,8.07
2018-02-01T09:05:44.737Z,8.31
2018-02-01T09:06:44.652Z,7.67
2018-02-01T09:07:44.559Z,7.48
2018-02-01T09:08:44.485Z,7.11
2018-02-01T09:09:44.423Z,8.09
2018-02-01T09:10:44.303Z,8.47
2018-02-01T09:11:44.244Z,8.71
2018-02-01T09:12:44.163Z,9.26
2018-02-01T09:13:44.068Z,8.71
2018-02-01T09:14:43.993Z,9.48
2018-02-01T09:15:43.910Z,8.47
2018-02-01T09:16:43.860Z,7.71
2018-02-01T09:17:43.743Z,8.14
2018-02-01T09:18:43.679Z,7.82
2018-02-01T09:19:43.617Z,8.02
2018-02-01T09:20:43.521Z,9.20
2018-02-01T09:21:43.437Z,9.03
2018-02-01T09:22:43.360Z,9.27
2018-02-01T09:23:43.276Z,8.50
2018-02-01T09:24:43.219Z,7.91
2018-02-01T09:25:43.146Z,7.70
2018-02-01T09:26:43.034Z,7.44
2018-02-01T09:27:43.461Z,7.21
2018-02-01T09:28:42.877Z,6.90
2018-02-01T09:29:42.788Z,6.90
2018-02-01T09:30:42.723Z,6.96
2018-02-01T09:31:42.645Z,7.82
2018-02-01T09:32:42.572Z,9.23
2018-02-01T09:33:42.460Z,9.50
2018-02-01T09:34:42.396Z,8.82
2018-02-01T09:35:42.306Z,7.96
2018-02-01T09:36:42.254Z,7.73
2018-02-01T09:37:42.148Z,7.45
2018-02-01T09:38:42.447Z,7.34
2018-02-01T09:39:41.988Z,7.37
2018-02-01T09:40:41.922Z,7.09
2018-02-01T09:41:41.843Z,6.94
2018-02-01T09:42:41.772Z,6.96
2018-02-01T09:43:41.699Z,6.91
2018-02-01T09:44:41.606Z,6.72
2018-02-01T09:45:41.513Z,6.75
2018-02-01T09:46:41.442Z,6.36
2018-02-01T09:47:41.449Z,6.21
2018-02-01T09:48:41.287Z,5.99
2018-02-01T09:49:41.216Z,5.90
2018-02-01T09:50:41.137Z,5.90
2018-02-01T09:51:41.032Z,5.81
2018-02-01T09:52:40.966Z,5.62
2018-02-01T09:53:40.900Z,5.75
2018-02-01T09:54:40.824Z,5.62
2018-02-01T09:55:40.722Z,5.70
2018-02-01T09:56:40.657Z,5.65
2018-02-01T09:57:40.555Z,5.60
2018-02-01T09:58:40.514Z,5.65
2018-02-01T09:59:40.414Z,5.63
2018-02-01T10:00:40.331Z,5.66
2018-02-01T10:01:40.239Z,5.58
2018-02-01T10:02:40.161Z,5.63
2018-02-01T10:03:40.070Z,5.60
2018-02-01T10:04:40.030Z,5.48
2018-02-01T10:05:39.908Z,5.55
2018-02-01T10:06:39.845Z,5.49
2018-02-01T10:07:39.764Z,5.58
2018-02-01T10:08:39.678Z,5.55
2018-02-01T10:09:39.617Z,5.58
2018-02-01T10:10:39.580Z,5.48
2018-02-01T10:11:39.416Z,5.45
2018-02-01T10:12:39.376Z,5.51
2018-02-01T10:13:39.264Z,5.62
2018-02-01T10:14:39.203Z,5.63
2018-02-01T10:15:39.113Z,5.87
2018-02-01T10:16:39.027Z,5.99
2018-02-01T10:17:38.929Z,6.13
2018-02-01T10:18:38.881Z,6.40
2018-02-01T10:19:38.794Z,6.53
2018-02-01T10:20:38.723Z,6.61
2018-02-01T10:21:38.624Z,6.71
2018-02-01T10:22:38.556Z,6.82
2018-02-01T10:23:38.444Z,7.08
2018-02-01T10:24:38.385Z,6.72
2018-02-01T10:25:38.297Z,6.93
2018-02-01T10:26:38.238Z,6.89
2018-02-01T10:27:38.133Z,7.05
2018-02-01T10:28:38.166Z,6.82
2018-02-01T10:29:37.962Z,6.68
2018-02-01T10:30:37.892Z,6.65
2018-02-01T10:31:37.815Z,6.55
2018-02-01T10:32:37.746Z,6.43
2018-02-01T10:33:37.640Z,6.38
2018-02-01T10:34:37.714Z,6.45
2018-02-01T10:35:37.498Z,6.48
2018-02-01T10:36:37.435Z,6.57
2018-02-01T10:37:37.313Z,6.43
2018-02-01T10:38:37.256Z,6.33
2018-02-01T10:39:37.157Z,6.21
2018-02-01T10:40:37.095Z,6.16
2018-02-01T10:41:37.018Z,6.28
2018-02-01T10:42:36.933Z,6.32
2018-02-01T10:43:36.839Z,6.28
2018-02-01T10:44:36.792Z,6.33
2018-02-01T10:45:36.670Z,6.17
2018-02-01T10:46:36.625Z,6.24
2018-02-01T10:47:36.525Z,6.16
2018-02-01T10:50:18.679Z,6.10
2018-02-01T10:51:18.599Z,6.17
2018-02-01T10:52:18.539Z,6.17
2018-02-01T10:53:18.437Z,6.21
2018-02-01T10:54:18.347Z,6.24
2018-02-01T10:55:18.280Z,6.27
2018-02-01T10:56:18.186Z,6.25
2018-02-01T10:57:18.144Z,6.05
2018-02-01T10:58:18.028Z,6.10
2018-02-01T10:59:17.970Z,6.11
2018-02-01T11:00:17.912Z,6.05
2018-02-01T11:01:17.806Z,5.96
2018-02-01T11:02:17.698Z,5.95
2018-02-01T11:03:17.642Z,5.90
2018-02-01T11:04:17.589Z,6.01
2018-02-01T11:05:17.501Z,6.03
2018-02-01T11:06:17.385Z,6.10
2018-02-01T11:07:17.310Z,6.13
2018-02-01T11:08:17.246Z,6.19
2018-02-01T11:09:17.158Z,6.35
2018-02-01T11:10:17.052Z,6.42
2018-02-01T11:11:16.980Z,6.46
2018-02-01T11:12:16.886Z,6.38
2018-02-01T11:13:16.848Z,6.32
2018-02-01T11:14:16.860Z,6.27
2018-02-01T11:16:58.681Z,6.21
2018-02-01T11:17:58.613Z,6.14
2018-02-01T11:18:58.585Z,6.17
2018-02-01T11:19:58.459Z,6.16
2018-02-01T11:20:58.373Z,6.20
2018-02-01T11:21:58.285Z,6.35
2018-02-01T11:22:58.195Z,6.30
2018-02-01T11:23:58.150Z,6.28
2018-02-01T11:24:58.038Z,6.19
2018-02-01T11:25:57.972Z,6.28
2018-02-01T11:26:57.860Z,6.36
2018-02-01T11:27:57.817Z,6.42
2018-02-01T11:28:57.742Z,6.43
2018-02-01T11:29:57.649Z,6.39
2018-02-01T11:30:57.545Z,6.42
2018-02-01T11:31:57.466Z,6.53
2018-02-01T11:32:57.379Z,6.43
2018-02-01T11:33:57.307Z,6.53
2018-02-01T11:34:57.315Z,6.36
2018-02-01T11:35:57.170Z,6.55
2018-02-01T11:36:57.049Z,6.57
2018-02-01T11:37:56.984Z,6.79
2018-02-01T11:38:56.917Z,6.81
2018-02-01T11:39:56.864Z,6.76
2018-02-01T11:40:56.806Z,6.81
2018-02-01T11:41:56.661Z,6.83
2018-02-01T11:42:56.562Z,6.72
2018-02-01T11:43:56.498Z,6.60
2018-02-01T11:44:56.411Z,6.54
2018-02-01T11:45:56.357Z,6.42
2018-02-01T11:46:56.268Z,6.25
2018-02-01T11:49:38.182Z,6.54
2018-02-01T11:50:38.134Z,6.45
2018-02-01T11:51:38.023Z,6.27
2018-02-01T11:52:37.942Z,6.40
2018-02-01T11:53:37.858Z,6.38
2018-02-01T11:54:37.783Z,6.27
2018-02-01T11:55:37.697Z,6.30
2018-02-01T11:56:37.649Z,6.28
2018-02-01T11:57:37.539Z,6.38
2018-02-01T11:58:37.506Z,6.35
2018-02-01T11:59:37.393Z,6.32
2018-02-01T12:00:37.303Z,6.38
2018-02-01T12:01:37.221Z,6.45
2018-02-01T12:02:37.149Z,6.38
2018-02-01T12:03:37.055Z,6.38
2018-02-01T12:04:36.992Z,6.33
2018-02-01T12:05:36.883Z,6.27
2018-02-01T12:06:36.834Z,6.27
2018-02-01T12:07:36.846Z,6.38
2018-02-01T12:08:36.661Z,6.35
2018-02-01T12:09:36.573Z,6.43
2018-02-01T12:10:36.492Z,6.45
2018-02-01T12:11:36.417Z,6.45
2018-02-01T12:12:36.328Z,6.40
2018-02-01T12:13:36.236Z,6.38
2018-02-01T12:14:36.165Z,6.55
2018-02-01T12:15:36.087Z,6.55
2018-02-01T12:16:36.024Z,6.55
2018-02-01T12:17:35.960Z,6.55
2018-02-01T12:18:35.844Z,6.64
2018-02-01T12:19:35.746Z,6.54
2018-02-01T12:20:35.688Z,6.46
2018-02-01T12:21:35.590Z,6.40
2018-02-01T12:22:35.514Z,6.35
2018-02-01T12:23:35.440Z,6.39
2018-02-01T12:24:35.361Z,6.27
2018-02-01T12:25:35.267Z,6.27
2018-02-01T12:26:35.215Z,6.30
2018-02-01T12:27:35.124Z,6.38
2018-02-01T12:28:35.053Z,6.43
2018-02-01T12:29:35.364Z,6.42
2018-02-01T12:30:34.874Z,6.39
2018-02-01T12:31:34.785Z,6.51
2018-02-01T12:32:34.729Z,6.43
2018-02-01T12:33:34.980Z,6.32
2018-02-01T12:34:34.551Z,6.21
2018-02-01T12:35:34.471Z,6.17
2018-02-01T12:36:34.390Z,6.27
2018-02-01T12:37:34.303Z,6.27
2018-02-01T12:38:34.256Z,6.27
2018-02-01T12:39:34.151Z,6.35
2018-02-01T12:40:34.062Z,6.28
2018-02-01T12:41:34.000Z,6.39
2018-02-01T12:42:33.901Z,6.42
2018-02-01T12:43:33.808Z,6.39
2018-02-01T12:44:33.768Z,6.33
2018-02-01T12:45:33.656Z,6.30
2018-02-01T12:46:33.627Z,6.40
2018-02-01T12:47:33.496Z,6.33
2018-02-01T12:48:33.420Z,6.30
2018-02-01T12:49:33.353Z,6.32
2018-02-01T12:50:33.254Z,6.28
2018-02-01T12:51:33.157Z,6.27
2018-02-01T12:52:33.101Z,6.21
2018-02-01T12:53:33.029Z,6.27
2018-02-01T12:54:32.948Z,6.20
2018-02-01T12:55:32.887Z,6.24
2018-02-01T12:56:32.830Z,6.20
2018-02-01T12:57:32.673Z,6.33
2018-02-01T12:58:32.615Z,6.28
2018-02-01T12:59:32.538Z,6.27
2018-02-01T13:00:32.514Z,6.19
2018-02-01T13:01:32.349Z,6.21
2018-02-01T13:02:32.286Z,6.13
2018-02-01T13:03:32.207Z,6.19
2018-02-01T13:04:32.128Z,6.08
2018-02-01T13:05:32.049Z,6.17
2018-02-01T13:06:31.959Z,6.14
2018-02-01T13:07:31.866Z,6.13
2018-02-01T13:08:31.807Z,6.01
2018-02-01T13:09:31.760Z,6.16
2018-02-01T13:10:31.675Z,6.14
2018-02-01T13:11:31.541Z,6.08
2018-02-01T13:12:31.472Z,5.88
2018-02-01T13:13:31.383Z,5.81
2018-02-01T13:14:31.309Z,5.90
2018-02-01T13:15:31.248Z,5.93
2018-02-01T13:16:31.167Z,5.99
2018-02-01T13:17:31.060Z,5.85
2018-02-01T13:18:31.057Z,5.88
2018-02-01T13:19:30.933Z,5.96
2018-02-01T13:20:30.852Z,5.96
2018-02-01T13:21:30.754Z,6.11
2018-02-01T13:22:30.661Z,6.16
2018-02-01T13:23:30.577Z,6.21
2018-02-01T13:24:30.494Z,6.27
2018-02-01T13:25:30.409Z,6.27
2018-02-01T13:26:30.377Z,6.17
2018-02-01T13:27:30.253Z,6.16
2018-02-01T13:28:30.176Z,6.11
2018-02-01T13:29:30.099Z,6.10